createdAt,value
2024-02-09T00:02:25.919Z,2.24
2024-02-09T00:05:18.559Z,2.24
2024-02-09T00:08:09.671Z,2.24
2024-02-09T00:11:00.526Z,2.25
2024-02-09T00:13:51.288Z,2.22
2024-02-09T00:16:42.023Z,2.22
2024-02-09T00:19:33.278Z,2.22
2024-02-09T00:22:24.102Z,2.22
2024-02-09T00:25:14.876Z,2.19
2024-02-09T00:28:07.019Z,2.19
2024-02-09T00:30:57.823Z,2.18
2024-02-09T00:33:48.606Z,2.14
2024-02-09T00:36:39.393Z,2.11
2024-02-09T00:39:34.794Z,2.05
2024-02-09T00:42:25.665Z,2.02
2024-02-09T00:45:16.483Z,2.02
2024-02-09T00:48:08.375Z,2.01
2024-02-09T00:50:59.312Z,2.01
2024-02-09T00:53:50.221Z,2.00
2024-02-09T00:56:42.630Z,2.05
2024-02-09T00:59:34.841Z,2.01
2024-02-09T01:02:27.218Z,2.01
2024-02-09T01:05:20.026Z,2.04
2024-02-09T01:08:10.933Z,2.02
2024-02-09T01:11:01.624Z,2.04
2024-02-09T01:14:10.706Z,1.98
2024-02-09T01:17:20.136Z,1.98
2024-02-09T01:20:30.160Z,1.95
2024-02-09T01:23:39.619Z,2.00
2024-02-09T01:26:49.075Z,2.00
2024-02-09T01:29:58.445Z,2.01
2024-02-09T01:33:07.946Z,2.00
2024-02-09T01:36:17.337Z,1.98
2024-02-09T01:39:26.669Z,2.00
2024-02-09T01:42:35.891Z,2.00
2024-02-09T01:45:45.321Z,1.98
2024-02-09T01:48:55.441Z,2.00
2024-02-09T01:52:05.074Z,1.95
2024-02-09T01:55:14.625Z,1.95
2024-02-09T01:58:26.889Z,1.91
2024-02-09T02:01:36.500Z,1.87
2024-02-09T02:04:46.240Z,1.87
2024-02-09T02:07:56.321Z,1.94
2024-02-09T02:11:05.723Z,1.93
2024-02-09T02:14:15.274Z,1.93
2024-02-09T02:17:24.685Z,1.90
2024-02-09T02:20:34.188Z,1.84
2024-02-09T02:23:48.525Z,1.86
2024-02-09T02:26:58.118Z,1.79
2024-02-09T02:30:07.306Z,1.73
2024-02-09T02:33:16.777Z,1.76
2024-02-09T02:36:27.444Z,1.72
2024-02-09T02:39:36.790Z,1.73
2024-02-09T02:42:27.460Z,1.72
2024-02-09T02:45:18.354Z,1.67
2024-02-09T02:48:27.760Z,1.64
2024-02-09T02:51:37.181Z,1.69
2024-02-09T02:54:46.584Z,1.67
2024-02-09T02:57:56.560Z,1.63
2024-02-09T03:01:05.794Z,1.69
2024-02-09T03:04:15.767Z,1.73
2024-02-09T03:07:32.317Z,1.69
2024-02-09T03:10:18.063Z,1.67
2024-02-09T03:13:08.844Z,1.63
2024-02-09T03:15:59.567Z,1.67
2024-02-09T03:18:50.434Z,1.64
2024-02-09T03:21:41.985Z,1.67
2024-02-09T03:24:32.819Z,1.72
2024-02-09T03:27:23.497Z,1.73
2024-02-09T03:30:18.291Z,1.74
2024-02-09T03:33:09.104Z,1.74
2024-02-09T03:35:59.989Z,1.76
2024-02-09T03:38:50.844Z,1.74
2024-02-09T03:41:41.581Z,1.74
2024-02-09T03:44:32.281Z,1.84
2024-02-09T03:47:28.140Z,1.83
2024-02-09T03:50:19.125Z,1.80
2024-02-09T03:53:11.949Z,1.80
2024-02-09T03:56:03.059Z,1.83
2024-02-09T03:58:53.780Z,1.84
2024-02-09T04:01:44.632Z,1.89
2024-02-09T04:04:35.511Z,1.86
2024-02-09T04:07:26.373Z,1.89
2024-02-09T04:10:33.914Z,1.89
2024-02-09T04:13:27.885Z,1.87
2024-02-09T04:16:20.649Z,1.89
2024-02-09T04:19:11.513Z,1.93
2024-02-09T04:22:02.453Z,1.98
2024-02-09T04:24:53.234Z,1.95
2024-02-09T04:27:45.627Z,1.97
2024-02-09T04:30:36.512Z,1.97
2024-02-09T04:33:27.270Z,1.98
2024-02-09T04:36:18.670Z,2.00
2024-02-09T04:39:11.476Z,1.97
2024-02-09T04:42:02.282Z,1.95
2024-02-09T04:44:52.999Z,1.97
2024-02-09T04:47:43.786Z,2.02
2024-02-09T04:50:34.539Z,2.05
2024-02-09T04:53:25.229Z,2.05
2024-02-09T04:56:27.889Z,2.07
2024-02-09T04:59:19.185Z,2.05
2024-02-09T05:02:12.383Z,2.05
2024-02-09T05:05:03.790Z,2.10
2024-02-09T05:07:54.781Z,2.10
2024-02-09T05:10:47.997Z,2.08
2024-02-09T05:13:38.887Z,2.11
2024-02-09T05:16:29.731Z,2.14
2024-02-09T05:19:20.546Z,2.15
2024-02-09T05:22:11.424Z,2.15
2024-02-09T05:25:04.032Z,2.17
2024-02-09T05:27:55.230Z,2.19
2024-02-09T05:30:46.031Z,2.21
2024-02-09T05:33:36.893Z,2.24
2024-02-09T05:36:29.713Z,2.24
2024-02-09T05:39:20.964Z,2.27
2024-02-09T05:42:11.811Z,2.31
2024-02-09T05:45:06.750Z,2.25
2024-02-09T05:47:57.880Z,2.27
2024-02-09T05:50:50.162Z,2.31
2024-02-09T05:53:42.200Z,2.32
2024-02-09T05:56:32.910Z,2.29
2024-02-09T05:59:23.830Z,2.32
2024-02-09T06:02:14.576Z,2.32
2024-02-09T06:05:06.001Z,2.28
2024-02-09T06:07:56.760Z,2.28
2024-02-09T06:10:49.792Z,2.32
2024-02-09T06:13:46.565Z,2.42
2024-02-09T06:16:37.659Z,2.41
2024-02-09T06:19:28.569Z,2.45
2024-02-09T06:22:19.377Z,2.48
2024-02-09T06:25:10.121Z,2.59
2024-02-09T06:28:04.342Z,2.62
2024-02-09T06:30:56.940Z,2.57
2024-02-09T06:33:51.646Z,2.62
2024-02-09T06:36:43.636Z,2.67
2024-02-09T06:39:34.608Z,2.72
2024-02-09T06:42:25.270Z,2.79
2024-02-09T06:45:18.094Z,2.84
2024-02-09T06:48:09.024Z,2.94
2024-02-09T06:51:00.201Z,3.01
2024-02-09T06:53:52.493Z,3.11
2024-02-09T06:56:43.437Z,3.12
2024-02-09T06:59:34.997Z,3.16
2024-02-09T07:02:25.912Z,3.21
2024-02-09T07:05:20.989Z,3.18
2024-02-09T07:08:12.453Z,3.22
2024-02-09T07:11:06.900Z,3.28
2024-02-09T07:13:57.599Z,3.38
2024-02-09T07:16:48.794Z,3.43
2024-02-09T07:19:39.607Z,3.49
2024-02-09T07:22:31.718Z,3.52
2024-02-09T07:25:22.551Z,3.62
2024-02-09T07:28:14.716Z,3.60
2024-02-09T07:31:05.623Z,3.67
2024-02-09T07:33:56.862Z,3.77
2024-02-09T07:36:47.684Z,3.77
2024-02-09T07:39:38.582Z,3.84
2024-02-09T07:42:29.403Z,3.86
2024-02-09T07:45:21.715Z,3.90
2024-02-09T07:48:12.554Z,3.95
2024-02-09T07:51:03.796Z,4.01
2024-02-09T07:53:54.679Z,4.05
2024-02-09T07:56:46.594Z,4.11
2024-02-09T07:59:37.282Z,4.15
2024-02-09T08:02:32.137Z,4.22
2024-02-09T08:05:22.959Z,4.26
2024-02-09T08:08:13.994Z,4.38
2024-02-09T08:11:04.853Z,4.44
2024-02-09T08:13:56.399Z,4.52
2024-02-09T08:16:47.689Z,4.62
2024-02-09T08:19:38.654Z,4.70
2024-02-09T08:22:32.391Z,4.84
2024-02-09T08:25:23.273Z,4.90
2024-02-09T08:28:14.205Z,4.95
2024-02-09T08:31:07.343Z,5.04
2024-02-09T08:33:58.657Z,5.14
2024-02-09T08:36:50.932Z,5.28
2024-02-09T08:39:45.103Z,5.46
2024-02-09T08:42:37.056Z,5.66
2024-02-09T08:45:28.598Z,5.87
2024-02-09T08:48:20.625Z,5.93
2024-02-09T08:51:11.647Z,6.01
2024-02-09T08:54:02.428Z,6.12
2024-02-09T08:56:53.192Z,6.25
2024-02-09T08:59:43.985Z,6.29
2024-02-09T09:02:34.755Z,6.29
2024-02-09T09:05:26.772Z,6.38
2024-02-09T09:08:17.531Z,6.45
2024-02-09T09:11:08.232Z,6.50
2024-02-09T09:13:58.949Z,6.59
2024-02-09T09:16:50.406Z,6.67
2024-02-09T09:19:42.405Z,6.67
2024-02-09T09:22:33.320Z,6.70
2024-02-09T09:25:24.106Z,6.72
2024-02-09T09:28:18.788Z,6.79
2024-02-09T09:31:09.670Z,6.85
2024-02-09T09:34:00.858Z,6.98
2024-02-09T09:36:51.695Z,7.05
2024-02-09T09:39:42.432Z,7.14
2024-02-09T09:42:33.157Z,7.16
2024-02-09T09:45:24.311Z,7.19
2024-02-09T09:48:16.702Z,7.26
2024-02-09T09:51:07.568Z,7.39
2024-02-09T09:53:58.917Z,7.54
2024-02-09T09:56:50.642Z,7.66
2024-02-09T09:59:41.936Z,7.76
2024-02-09T10:02:33.252Z,7.79
2024-02-09T10:05:24.463Z,7.81
2024-02-09T10:08:15.464Z,7.90
2024-02-09T10:11:09.616Z,8.00
2024-02-09T10:14:00.437Z,7.97
2024-02-09T10:16:51.266Z,8.00
2024-02-09T10:19:43.940Z,7.98
2024-02-09T10:22:34.711Z,7.97
2024-02-09T10:25:25.515Z,8.07
2024-02-09T10:28:16.433Z,8.11
2024-02-09T10:31:07.600Z,8.15
2024-02-09T10:33:58.707Z,8.22
2024-02-09T10:36:49.704Z,8.25
2024-02-09T10:39:40.942Z,8.25
2024-02-09T10:42:33.061Z,8.29
2024-02-09T10:45:27.514Z,8.39
2024-02-09T10:48:22.992Z,8.50
2024-02-09T10:51:19.220Z,8.66
2024-02-09T10:54:25.096Z,8.77
2024-02-09T10:57:16.099Z,8.87
2024-02-09T11:00:11.475Z,8.97
2024-02-09T11:03:02.569Z,9.05
2024-02-09T11:05:53.919Z,9.18
2024-02-09T11:08:45.862Z,9.28
2024-02-09T11:11:39.491Z,9.39
2024-02-09T11:14:31.970Z,9.50
2024-02-09T11:17:22.908Z,9.56
2024-02-09T11:20:15.206Z,9.60
2024-02-09T11:23:06.361Z,9.69
2024-02-09T11:26:01.370Z,9.77
2024-02-09T11:28:52.807Z,9.86
2024-02-09T11:31:53.660Z,9.84
2024-02-09T11:34:49.375Z,9.79
2024-02-09T11:37:46.829Z,9.75
2024-02-09T11:40:37.826Z,9.70
2024-02-09T11:43:30.902Z,9.70
2024-02-09T11:46:22.095Z,9.81
2024-02-09T11:49:13.691Z,9.83
2024-02-09T11:52:07.675Z,9.87
2024-02-09T11:55:02.986Z,10.00
2024-02-09T11:57:53.874Z,10.12
2024-02-09T12:00:44.979Z,10.17
2024-02-09T12:03:36.005Z,10.21
2024-02-09T12:06:28.614Z,10.19
2024-02-09T12:09:19.317Z,10.21
2024-02-09T12:12:10.957Z,10.19
2024-02-09T12:15:02.433Z,10.18
2024-02-09T12:17:53.328Z,10.15
2024-02-09T12:20:44.670Z,10.17
2024-02-09T12:23:35.583Z,10.21
2024-02-09T12:26:28.881Z,10.22
2024-02-09T12:29:20.752Z,10.29
2024-02-09T12:32:12.182Z,10.38
2024-02-09T12:35:04.028Z,10.42
2024-02-09T12:37:57.582Z,10.49
2024-02-09T12:40:49.405Z,10.55
2024-02-09T12:43:40.310Z,10.62
2024-02-09T12:46:31.722Z,10.63
2024-02-09T12:49:23.339Z,10.64
2024-02-09T12:52:15.811Z,10.67
2024-02-09T12:55:09.181Z,10.70
2024-02-09T12:58:00.732Z,10.76
2024-02-09T13:00:54.032Z,10.85
2024-02-09T13:03:45.378Z,10.93
2024-02-09T13:06:36.187Z,10.84
2024-02-09T13:09:27.421Z,10.81
2024-02-09T13:12:18.325Z,10.80
2024-02-09T13:15:11.498Z,10.81
2024-02-09T13:18:03.312Z,10.81
2024-02-09T13:20:54.546Z,10.85
2024-02-09T13:23:46.235Z,10.81
2024-02-09T13:26:37.894Z,10.87
2024-02-09T13:29:28.651Z,10.88
2024-02-09T13:32:19.431Z,10.83
2024-02-09T13:35:14.596Z,10.83
2024-02-09T13:38:05.342Z,10.83
2024-02-09T13:40:56.117Z,10.88
2024-02-09T13:43:46.884Z,10.85
2024-02-09T13:46:37.696Z,10.84
2024-02-09T13:49:28.502Z,10.85
2024-02-09T13:52:20.821Z,10.84
2024-02-09T13:55:15.561Z,10.83
2024-02-09T13:58:07.634Z,10.83
2024-02-09T14:00:58.485Z,10.79
2024-02-09T14:03:52.788Z,10.77
2024-02-09T14:06:44.209Z,10.74
2024-02-09T14:09:37.119Z,10.64
2024-02-09T14:12:29.004Z,10.59
2024-02-09T14:15:19.732Z,10.46
2024-02-09T14:18:11.642Z,10.36
2024-02-09T14:21:06.696Z,10.28
2024-02-09T14:23:57.386Z,10.22
2024-02-09T14:26:51.596Z,10.25
2024-02-09T14:29:43.014Z,10.22
2024-02-09T14:32:33.845Z,10.25
2024-02-09T14:35:24.625Z,10.22
2024-02-09T14:38:18.505Z,10.17
2024-02-09T14:41:09.205Z,10.11
2024-02-09T14:44:00.753Z,10.09
2024-02-09T14:46:51.638Z,10.04
2024-02-09T14:49:42.566Z,10.04
2024-02-09T14:52:33.478Z,10.00
2024-02-09T14:55:25.381Z,9.94
2024-02-09T14:58:16.131Z,9.87
2024-02-09T15:01:07.270Z,9.79
2024-02-09T15:03:58.055Z,9.75
2024-02-09T15:06:49.364Z,9.71
2024-02-09T15:09:41.824Z,9.64
2024-02-09T15:12:32.719Z,9.63
2024-02-09T15:15:24.793Z,9.57
2024-02-09T15:18:16.550Z,9.54
2024-02-09T15:21:07.428Z,9.43
2024-02-09T15:23:58.312Z,9.35
2024-02-09T15:26:49.054Z,9.18
2024-02-09T15:29:39.819Z,9.08
2024-02-09T15:32:30.565Z,8.98
2024-02-09T15:35:21.391Z,8.88
2024-02-09T15:38:12.318Z,8.80
2024-02-09T15:41:03.195Z,8.67
2024-02-09T15:43:54.319Z,8.54
2024-02-09T15:46:46.096Z,8.47
2024-02-09T15:49:36.973Z,8.33
2024-02-09T15:52:29.018Z,8.21
2024-02-09T15:55:19.944Z,8.07
2024-02-09T15:58:10.699Z,7.90
2024-02-09T16:01:01.519Z,7.73
2024-02-09T16:03:55.278Z,7.60
2024-02-09T16:06:46.098Z,7.43
2024-02-09T16:09:36.788Z,7.28
2024-02-09T16:12:27.563Z,7.24
2024-02-09T16:15:22.258Z,7.18
2024-02-09T16:18:13.186Z,7.15
2024-02-09T16:21:04.130Z,7.09
2024-02-09T16:23:55.162Z,7.07
2024-02-09T16:26:45.925Z,7.05
2024-02-09T16:29:36.618Z,7.05
2024-02-09T16:32:27.618Z,7.03
2024-02-09T16:35:20.243Z,6.91
2024-02-09T16:38:11.019Z,6.90
2024-02-09T16:41:01.877Z,6.94
2024-02-09T16:43:52.682Z,6.97
2024-02-09T16:46:43.552Z,6.98
2024-02-09T16:49:34.288Z,7.08
2024-02-09T16:52:25.131Z,7.12
2024-02-09T16:55:15.944Z,7.04
2024-02-09T16:58:07.088Z,7.04
2024-02-09T17:00:58.040Z,7.07
2024-02-09T17:03:48.852Z,7.07
2024-02-09T17:06:40.607Z,7.11
2024-02-09T17:09:31.369Z,7.14
2024-02-09T17:12:22.197Z,7.11
2024-02-09T17:15:12.905Z,7.08
2024-02-09T17:18:04.828Z,7.12
2024-02-09T17:20:55.772Z,7.12
2024-02-09T17:23:48.974Z,7.08
2024-02-09T17:26:39.807Z,7.03
2024-02-09T17:29:30.565Z,6.97
2024-02-09T17:32:21.295Z,6.94
2024-02-09T17:35:12.128Z,6.95
2024-02-09T17:38:02.910Z,6.98
2024-02-09T17:40:53.726Z,6.95
2024-02-09T17:43:44.550Z,6.95
2024-02-09T17:46:35.429Z,6.95
2024-02-09T17:49:27.962Z,6.97
2024-02-09T17:52:19.216Z,6.94
2024-02-09T17:55:10.425Z,6.97
2024-02-09T17:58:01.173Z,6.91
2024-02-09T18:00:54.296Z,6.88
2024-02-09T18:03:45.135Z,6.88
2024-02-09T18:06:36.869Z,6.91
2024-02-09T18:09:28.976Z,6.91
2024-02-09T18:12:19.656Z,6.94
2024-02-09T18:15:11.032Z,6.95
2024-02-09T18:18:02.162Z,6.94
2024-02-09T18:20:53.315Z,6.95
2024-02-09T18:23:44.289Z,6.95
2024-02-09T18:26:35.004Z,6.97
2024-02-09T18:29:26.926Z,6.95
2024-02-09T18:32:17.757Z,6.94
2024-02-09T18:35:09.257Z,6.94
2024-02-09T18:38:00.056Z,6.94
2024-02-09T18:40:52.176Z,6.91
2024-02-09T18:43:43.185Z,6.91
2024-02-09T18:46:33.938Z,6.91
2024-02-09T18:49:30.424Z,6.95
2024-02-09T18:52:21.824Z,6.97
2024-02-09T18:55:15.643Z,7.01
2024-02-09T18:58:06.534Z,7.01
2024-02-09T19:00:59.233Z,6.98
2024-02-09T19:03:50.092Z,7.00
2024-02-09T19:06:41.668Z,7.00
2024-02-09T19:09:32.404Z,7.00
2024-02-09T19:12:23.114Z,6.97
2024-02-09T19:15:17.765Z,6.97
2024-02-09T19:18:08.861Z,6.97
2024-02-09T19:21:00.553Z,6.95
2024-02-09T19:23:51.373Z,6.95
2024-02-09T19:26:42.045Z,6.91
2024-02-09T19:29:34.716Z,6.91
2024-02-09T19:32:25.554Z,6.94
2024-02-09T19:35:16.511Z,6.91
2024-02-09T19:38:07.604Z,6.88
2024-02-09T19:41:02.319Z,6.88
2024-02-09T19:43:53.651Z,6.85
2024-02-09T19:46:48.480Z,6.85
2024-02-09T19:49:39.410Z,6.84
2024-02-09T19:52:30.227Z,6.84
2024-02-09T19:55:21.992Z,6.83
2024-02-09T19:58:12.873Z,6.80
2024-02-09T20:01:08.885Z,6.79
2024-02-09T20:03:59.778Z,6.69
2024-02-09T20:06:50.759Z,6.59
2024-02-09T20:09:41.489Z,6.56
2024-02-09T20:12:32.600Z,6.54
2024-02-09T20:15:27.675Z,6.53
2024-02-09T20:18:19.023Z,6.49
2024-02-09T20:21:11.400Z,6.47
2024-02-09T20:24:04.661Z,6.46
2024-02-09T20:26:56.519Z,6.45
2024-02-09T20:29:47.234Z,6.43
2024-02-09T20:32:38.129Z,6.43
2024-02-09T20:35:29.146Z,6.50
2024-02-09T20:38:20.099Z,6.52
2024-02-09T20:41:20.753Z,6.50
2024-02-09T20:44:13.204Z,6.42
2024-02-09T20:47:09.036Z,6.40
2024-02-09T20:50:00.721Z,6.43
2024-02-09T20:52:52.396Z,6.49
2024-02-09T20:55:45.823Z,6.52
2024-02-09T20:58:41.425Z,6.49
2024-02-09T21:01:32.588Z,6.42
2024-02-09T21:04:23.492Z,6.39
2024-02-09T21:07:14.874Z,6.33
2024-02-09T21:10:06.695Z,6.33
2024-02-09T21:13:00.878Z,6.33
2024-02-09T21:15:53.036Z,6.33
2024-02-09T21:18:45.827Z,6.30
2024-02-09T21:21:37.011Z,6.33
2024-02-09T21:24:28.862Z,6.33
2024-02-09T21:27:19.607Z,6.29
2024-02-09T21:33:15.532Z,6.28
2024-02-09T21:36:08.037Z,6.28
2024-02-09T21:38:59.197Z,6.28
2024-02-09T21:41:49.923Z,6.32
2024-02-09T21:44:40.671Z,6.25
2024-02-09T21:47:38.953Z,6.22
2024-02-09T21:50:29.983Z,6.25
2024-02-09T21:53:21.612Z,6.25
2024-02-09T21:56:12.381Z,6.21
2024-02-09T21:59:04.725Z,6.18
2024-02-09T22:01:55.459Z,6.17
2024-02-09T22:04:52.832Z,6.15
2024-02-09T22:07:46.217Z,6.15
2024-02-09T22:10:37.096Z,6.15
2024-02-09T22:13:28.794Z,6.09
2024-02-09T22:16:21.251Z,6.09
2024-02-09T22:19:14.494Z,6.00
2024-02-09T22:22:05.516Z,5.94
2024-02-09T22:24:56.564Z,5.93
2024-02-09T22:27:47.465Z,5.94
2024-02-09T22:30:39.923Z,5.97
2024-02-09T22:33:30.953Z,5.95
2024-02-09T22:36:21.886Z,5.95
2024-02-09T22:39:13.214Z,5.91
2024-02-09T22:42:04.108Z,5.81
2024-02-09T22:44:54.905Z,5.80
2024-02-09T22:47:45.715Z,5.73
2024-02-09T22:50:36.463Z,5.73
2024-02-09T22:53:27.221Z,5.71
2024-02-09T22:56:21.777Z,5.73
2024-02-09T22:59:12.649Z,5.79
2024-02-09T23:02:03.514Z,5.80
2024-02-09T23:04:55.321Z,5.87
2024-02-09T23:07:46.827Z,5.87
2024-02-09T23:10:37.664Z,5.95
2024-02-09T23:13:28.894Z,5.97
2024-02-09T23:16:19.703Z,5.94
2024-02-09T23:19:10.640Z,5.98
2024-02-09T23:22:02.103Z,6.01
2024-02-09T23:24:52.856Z,6.04
2024-02-09T23:27:43.627Z,5.98
2024-02-09T23:30:34.707Z,6.00
2024-02-09T23:33:25.425Z,5.98
2024-02-09T23:36:19.406Z,5.95
2024-02-09T23:39:10.123Z,5.95
2024-02-09T23:42:01.104Z,5.97
2024-02-09T23:44:53.015Z,5.94
2024-02-09T23:47:43.962Z,6.00
2024-02-09T23:50:34.751Z,6.00
2024-02-09T23:53:27.734Z,6.02
2024-02-09T23:56:18.472Z,6.02
2024-02-09T23:59:09.175Z,6.05
